| time (UTC) | temp C | wind direction | speed KPH | gust KPH | rain 1hr cm | rain 24hr cm | rain mn cm | humidity % | barometer mb |
| 20260902175238 | 35 | 196 | 4.8 | 9.7 | 0.00 | 0.00 | 0.00 | 50 | 1048.1 |
| 20260902174734 | 35 | 250 | 3.2 | 3.2 | 0.00 | 0.00 | 0.00 | 50 | 1048.0 |
| 20260902174230 | 35 | 278 | 1.6 | 3.2 | 0.00 | 0.00 | 0.00 | 51 | 1048.2 |
| 20260902173726 | 35 | 300 | 1.6 | 1.6 | 0.00 | 0.00 | 0.00 | 52 | 1048.2 |
| 20260902173226 | 35 | 226 | 4.8 | 4.8 | 0.00 | 0.00 | 0.00 | 49 | 1048.4 |
| 20260902172726 | 35 | 289 | 1.6 | 1.6 | 0.00 | 0.00 | 0.00 | 50 | 1048.3 |
| 20260902172225 | 35 | 281 | 1.6 | 1.6 | 0.00 | 0.00 | 0.00 | 53 | 1048.2 |
| 20260902171721 | 35 | 298 | 3.2 | 3.2 | 0.00 | 0.00 | 0.00 | 51 | 1048.3 |
| 20260902171216 | 35 | 242 | 1.6 | 1.6 | 0.00 | 0.00 | 0.00 | 55 | 1048.4 |
| 20260902170712 | 35 | 254 | 3.2 | 3.2 | 0.00 | 0.00 | 0.00 | 50 | 1048.5 |
| 20260902170208 | 35 | 277 | 3.2 | 3.2 | 0.00 | 0.00 | 0.00 | 51 | 1048.4 |
| 20260902165708 | 35 | 258 | 3.2 | 3.2 | 0.00 | 0.00 | 0.00 | 52 | 1048.2 |
| 20260902165202 | 35 | 271 | 1.6 | 1.6 | 0.00 | 0.00 | 0.00 | 53 | 1048.5 |
| 20260902164657 | 35 | 287 | 3.2 | 4.8 | 0.00 | 0.00 | 0.00 | 53 | 1048.5 |
| 20260902164156 | 35 | 259 | 3.2 | 3.2 | 0.00 | 0.00 | 0.00 | 52 | 1048.8 |
| 20260902163651 | 35 | 269 | 3.2 | 4.8 | 0.00 | 0.00 | 0.00 | 51 | 1048.8 |
| 20260902163151 | 35 | 277 | 0.0 | 1.6 | 0.00 | 0.00 | 0.00 | 53 | 1048.6 |
| 20260902162650 | 35 | 285 | 1.6 | 1.6 | 0.00 | 0.00 | 0.00 | 53 | 1048.6 |
| 20260902162144 | 35 | 263 | 0.0 | 0.0 | 0.00 | 0.00 | 0.00 | 56 | 1048.8 |
| 20260902161639 | 34 | 271 | 1.6 | 1.6 | 0.00 | 0.00 | 0.00 | 53 | 1048.7 |
| 20260902161135 | 33 | 284 | 1.6 | 1.6 | 0.00 | 0.00 | 0.00 | 54 | 1048.9 |
| 20260902160632 | 34 | 201 | 6.4 | 9.7 | 0.00 | 0.00 | 0.00 | 50 | 1048.9 |
| 20260902160126 | 34 | 272 | 0.0 | 0.0 | 0.00 | 0.00 | 0.00 | 55 | 1048.9 |
| 20260902155625 | 34 | 256 | 1.6 | 1.6 | 0.00 | 0.00 | 0.00 | 54 | 1048.7 |
| 20260902155124 | 34 | 272 | 0.0 | 0.0 | 0.00 | 0.00 | 0.00 | 55 | 1048.7 |
| 20260902154619 | 34 | 272 | 0.0 | 1.6 | 0.00 | 0.00 | 0.00 | 58 | 1048.7 |
| 20260902154114 | 34 | 280 | 0.0 | 0.0 | 0.00 | 0.00 | 0.00 | 57 | 1048.9 |
| 20260902153613 | 33 | 270 | 3.2 | 3.2 | 0.00 | 0.00 | 0.00 | 56 | 1048.9 |
| 20260902153108 | 33 | 275 | 1.6 | 1.6 | 0.00 | 0.00 | 0.00 | 58 | 1048.9 |
| 20260902152604 | 33 | 248 | 3.2 | 4.8 | 0.00 | 0.00 | 0.00 | 57 | 1049.0 |
| 20260902152059 | 33 | 228 | 4.8 | 4.8 | 0.00 | 0.00 | 0.00 | 58 | 1048.9 |
| 20260902151555 | 32 | 285 | 1.6 | 1.6 | 0.00 | 0.00 | 0.00 | 60 | 1048.9 |
| 20260902151054 | 33 | 296 | 3.2 | 4.8 | 0.00 | 0.00 | 0.00 | 59 | 1049.0 |
| 20260902150550 | 33 | 317 | 3.2 | 3.2 | 0.00 | 0.00 | 0.00 | 59 | 1049.0 |
| 20260902150046 | 33 | 276 | 3.2 | 4.8 | 0.00 | 0.00 | 0.00 | 59 | 1048.9 |
| 20260902145540 | 32 | 268 | 1.6 | 1.6 | 0.00 | 0.00 | 0.00 | 61 | 1048.8 |
| 20260902145040 | 32 | 264 | 3.2 | 3.2 | 0.00 | 0.00 | 0.00 | 60 | 1049.2 |
| 20260902144537 | 32 | 237 | 3.2 | 3.2 | 0.00 | 0.00 | 0.00 | 60 | 1048.8 |
| 20260902144037 | 32 | 265 | 1.6 | 1.6 | 0.00 | 0.00 | 0.00 | 61 | 1048.9 |
| 20260902143537 | 32 | 268 | 1.6 | 1.6 | 0.00 | 0.00 | 0.00 | 62 | 1048.9 |
| 20260902143033 | 32 | 281 | 1.6 | 1.6 | 0.00 | 0.00 | 0.00 | 62 | 1049.1 |
| 20260902142529 | 32 | 262 | 1.6 | 1.6 | 0.00 | 0.00 | 0.00 | 62 | 1049.1 |
| 20260902142024 | 32 | 259 | 1.6 | 1.6 | 0.00 | 0.00 | 0.00 | 63 | 1049.0 |
| 20260902141524 | 31 | 274 | 1.6 | 1.6 | 0.00 | 0.00 | 0.00 | 64 | 1049.1 |
| 20260902141019 | 31 | 289 | 0.0 | 0.0 | 0.00 | 0.00 | 0.00 | 66 | 1049.2 |
| 20260902140514 | 31 | 288 | 0.0 | 0.0 | 0.00 | 0.00 | 0.00 | 66 | 1049.3 |
| 20260902140010 | 30 | 267 | 1.6 | 1.6 | 0.00 | 0.00 | 0.00 | 66 | 1049.2 |
| 20260902135503 | 30 | 273 | 1.6 | 3.2 | 0.00 | 0.00 | 0.00 | 67 | 1049.5 |
| 20260902135003 | 30 | 291 | 0.0 | 1.6 | 0.00 | 0.00 | 0.00 | 69 | 1049.3 |
| 20260902134500 | 30 | 275 | 1.6 | 1.6 | 0.00 | 0.00 | 0.00 | 71 | 1049.5 |
| 20260902134000 | 30 | 273 | 1.6 | 1.6 | 0.00 | 0.00 | 0.00 | 71 | 1049.5 |
| 20260902133454 | 29 | 254 | 0.0 | 0.0 | 0.00 | 0.00 | 0.00 | 73 | 1049.6 |
| 20260902132949 | 29 | 253 | 0.0 | 0.0 | 0.00 | 0.00 | 0.00 | 74 | 1049.3 |
| 20260902132444 | 28 | 257 | 0.0 | 0.0 | 0.00 | 0.00 | 0.00 | 76 | 1049.5 |
| 20260902131939 | 28 | 250 | 0.0 | 0.0 | 0.00 | 0.00 | 0.00 | 76 | 1049.4 |
| 20260902131436 | 28 | 285 | 1.6 | 1.6 | 0.00 | 0.00 | 0.00 | 75 | 1049.3 |
| 20260902130935 | 27 | 250 | 1.6 | 1.6 | 0.00 | 0.00 | 0.00 | 76 | 1049.3 |
| 20260902130432 | 27 | 249 | 0.0 | 0.0 | 0.00 | 0.00 | 0.00 | 77 | 1049.3 |
| 20260902125931 | 27 | 248 | 0.0 | 0.0 | 0.00 | 0.00 | 0.00 | 79 | 1049.5 |
| 20260902125428 | 26 | 239 | 0.0 | 0.0 | 0.00 | 0.00 | 0.00 | 80 | 1049.1 |
| 20260902124923 | 26 | 239 | 0.0 | 0.0 | 0.00 | 0.00 | 0.00 | 81 | 1049.2 |
| 20260902124419 | 25 | 246 | 1.6 | 1.6 | 0.00 | 0.00 | 0.00 | 83 | 1049.4 |
| 20260902123914 | 25 | 246 | 0.0 | 0.0 | 0.00 | 0.00 | 0.00 | 84 | 1049.3 |
| 20260902123411 | 25 | 247 | 0.0 | 0.0 | 0.00 | 0.00 | 0.00 | 85 | 1049.3 |
| 20260902122908 | 25 | 247 | 0.0 | 0.0 | 0.00 | 0.00 | 0.00 | 86 | 1049.4 |
| 20260902122405 | 25 | 247 | 0.0 | 0.0 | 0.00 | 0.00 | 0.00 | 86 | 1049.4 |
| 20260902121900 | 24 | 247 | 0.0 | 1.6 | 0.00 | 0.00 | 0.00 | 87 | 1049.3 |
| 20260902121355 | 24 | 250 | 0.0 | 0.0 | 0.00 | 0.00 | 0.00 | 87 | 1049.4 |
| 20260902120850 | 23 | 250 | 0.0 | 0.0 | 0.00 | 0.00 | 0.00 | 88 | 1049.3 |
| 20260902120347 | 23 | 250 | 0.0 | 0.0 | 0.00 | 0.00 | 0.00 | 89 | 1049.4 |
| 20260902115846 | 23 | 250 | 0.0 | 1.6 | 0.00 | 0.00 | 0.00 | 90 | 1049.3 |
| 20260902115342 | 23 | 250 | 0.0 | 0.0 | 0.00 | 0.00 | 0.00 | 91 | 1049.2 |
| 20260902114838 | 23 | 250 | 0.0 | 0.0 | 0.00 | 0.00 | 0.00 | 92 | 1049.2 |
| 20260902114334 | 22 | 250 | 0.0 | 0.0 | 0.00 | 0.00 | 0.00 | 93 | 1049.2 |
| 20260902113834 | 22 | 250 | 0.0 | 0.0 | 0.00 | 0.00 | 0.00 | 94 | 1049.1 |
| 20260902113330 | 22 | 250 | 0.0 | 0.0 | 0.00 | 0.00 | 0.00 | 95 | 1048.9 |
| 20260902112829 | 22 | 250 | 0.0 | 0.0 | 0.00 | 0.00 | 0.00 | 95 | 1049.0 |
| 20260902112326 | 22 | 251 | 0.0 | 0.0 | 0.00 | 0.00 | 0.00 | 95 | 1049.1 |
| 20260902111821 | 22 | 250 | 0.0 | 0.0 | 0.00 | 0.00 | 0.00 | 95 | 1048.8 |
| 20260902111317 | 22 | 250 | 0.0 | 0.0 | 0.00 | 0.00 | 0.00 | 95 | 1048.8 |
| 20260902110813 | 22 | 250 | 0.0 | 0.0 | 0.00 | 0.00 | 0.00 | 96 | 1048.9 |
| 20260902110308 | 22 | 250 | 0.0 | 0.0 | 0.00 | 0.00 | 0.00 | 96 | 1048.8 |
| 20260902105808 | 22 | 250 | 0.0 | 0.0 | 0.00 | 0.00 | 0.00 | 96 | 1048.9 |
| 20260902105306 | 22 | 250 | 0.0 | 0.0 | 0.00 | 0.00 | 0.00 | 96 | 1048.5 |
| 20260902104758 | 22 | 250 | 0.0 | 0.0 | 0.00 | 0.00 | 0.00 | 96 | 1048.6 |
| 20260902104255 | 22 | 250 | 0.0 | 0.0 | 0.00 | 0.00 | 0.00 | 96 | 1048.6 |
| 20260902103755 | 22 | 250 | 0.0 | 0.0 | 0.00 | 0.00 | 0.00 | 97 | 1048.6 |
| 20260902103254 | 22 | 250 | 0.0 | 0.0 | 0.00 | 0.00 | 0.00 | 97 | 1048.5 |
| 20260902102750 | 22 | 251 | 0.0 | 0.0 | 0.00 | 0.00 | 0.00 | 96 | 1048.7 |
| 20260902102247 | 22 | 251 | 0.0 | 0.0 | 0.00 | 0.00 | 0.00 | 96 | 1048.6 |
| 20260902101742 | 22 | 251 | 0.0 | 0.0 | 0.00 | 0.00 | 0.00 | 96 | 1048.3 |
| 20260902101237 | 22 | 251 | 0.0 | 0.0 | 0.00 | 0.00 | 0.00 | 96 | 1048.6 |
| 20260902100737 | 22 | 250 | 0.0 | 0.0 | 0.00 | 0.00 | 0.00 | 96 | 1048.3 |
| 20260902100231 | 22 | 250 | 0.0 | 0.0 | 0.00 | 0.00 | 0.00 | 96 | 1048.4 |
| 20260902095726 | 22 | 251 | 0.0 | 0.0 | 0.00 | 0.00 | 0.00 | 96 | 1048.2 |
| 20260902095226 | 22 | 250 | 0.0 | 0.0 | 0.00 | 0.00 | 0.00 | 95 | 1048.4 |
| 20260902094720 | 22 | 250 | 0.0 | 0.0 | 0.00 | 0.00 | 0.00 | 95 | 1048.4 |
| 20260902094217 | 22 | 250 | 0.0 | 0.0 | 0.00 | 0.00 | 0.00 | 96 | 1048.4 |
| 20260902093716 | 22 | 250 | 0.0 | 0.0 | 0.00 | 0.00 | 0.00 | 96 | 1048.2 |
| 20260902093212 | 22 | 251 | 0.0 | 0.0 | 0.00 | 0.00 | 0.00 | 96 | 1048.3 |
| 20260902092711 | 22 | 250 | 0.0 | 0.0 | 0.00 | 0.00 | 0.00 | 96 | 1048.2 |
| 20260902092207 | 22 | 250 | 0.0 | 0.0 | 0.00 | 0.00 | 0.00 | 95 | 1048.2 |
| 20260902091706 | 22 | 250 | 0.0 | 0.0 | 0.00 | 0.00 | 0.00 | 95 | 1048.1 |
| 20260902091203 | 22 | 251 | 0.0 | 0.0 | 0.00 | 0.00 | 0.00 | 95 | 1048.3 |
| 20260902090659 | 22 | 250 | 0.0 | 0.0 | 0.00 | 0.00 | 0.00 | 95 | 1048.0 |
| 20260902090158 | 22 | 250 | 0.0 | 0.0 | 0.00 | 0.00 | 0.00 | 95 | 1048.2 |
| 20260902085658 | 22 | 250 | 0.0 | 0.0 | 0.00 | 0.00 | 0.00 | 94 | 1048.2 |
| 20260902085153 | 22 | 250 | 0.0 | 0.0 | 0.00 | 0.00 | 0.00 | 94 | 1048.1 |
| 20260902084649 | 22 | 250 | 0.0 | 0.0 | 0.00 | 0.00 | 0.00 | 94 | 1048.2 |
| 20260902084144 | 22 | 250 | 0.0 | 0.0 | 0.00 | 0.00 | 0.00 | 94 | 1048.2 |
| 20260902083640 | 23 | 251 | 0.0 | 0.0 | 0.00 | 0.00 | 0.00 | 94 | 1048.1 |
| 20260902083138 | 23 | 250 | 0.0 | 0.0 | 0.00 | 0.00 | 0.00 | 94 | 1047.9 |
| 20260902082634 | 23 | 251 | 0.0 | 0.0 | 0.00 | 0.00 | 0.00 | 93 | 1047.8 |
| 20260902082132 | 23 | 251 | 0.0 | 0.0 | 0.00 | 0.00 | 0.00 | 93 | 1048.0 |
| 20260902081628 | 23 | 251 | 0.0 | 0.0 | 0.00 | 0.00 | 0.00 | 93 | 1047.9 |
| 20260902081128 | 23 | 250 | 0.0 | 0.0 | 0.00 | 0.00 | 0.00 | 92 | 1047.8 |
| 20260902080623 | 23 | 250 | 0.0 | 0.0 | 0.00 | 0.00 | 0.00 | 92 | 1047.9 |
| 20260902080120 | 23 | 250 | 0.0 | 0.0 | 0.00 | 0.00 | 0.00 | 92 | 1047.9 |
| 20260902075619 | 23 | 250 | 0.0 | 0.0 | 0.00 | 0.00 | 0.00 | 92 | 1047.9 |
| 20260902075115 | 23 | 250 | 0.0 | 0.0 | 0.00 | 0.00 | 0.00 | 92 | 1047.8 |
| 20260902074610 | 23 | 250 | 0.0 | 0.0 | 0.00 | 0.00 | 0.00 | 92 | 1047.9 |
| 20260902074105 | 23 | 250 | 0.0 | 0.0 | 0.00 | 0.00 | 0.00 | 92 | 1047.8 |
| 20260902073601 | 23 | 250 | 0.0 | 0.0 | 0.00 | 0.00 | 0.00 | 92 | 1047.7 |
| 20260902073057 | 23 | 250 | 0.0 | 0.0 | 0.00 | 0.00 | 0.00 | 93 | 1047.8 |
| 20260902072553 | 23 | 250 | 0.0 | 0.0 | 0.00 | 0.00 | 0.00 | 93 | 1047.7 |
| 20260902072049 | 23 | 250 | 0.0 | 0.0 | 0.00 | 0.00 | 0.00 | 93 | 1047.7 |
| 20260902071548 | 23 | 250 | 0.0 | 0.0 | 0.00 | 0.00 | 0.00 | 93 | 1048.0 |
| 20260902071045 | 23 | 251 | 0.0 | 0.0 | 0.00 | 0.00 | 0.00 | 93 | 1047.8 |
| 20260902070540 | 23 | 251 | 0.0 | 0.0 | 0.00 | 0.00 | 0.00 | 92 | 1047.8 |
| 20260902070036 | 23 | 250 | 0.0 | 0.0 | 0.00 | 0.00 | 0.00 | 92 | 1047.9 |
| 20260902065534 | 23 | 251 | 0.0 | 0.0 | 0.00 | 0.00 | 0.00 | 92 | 1047.9 |
| 20260902065030 | 23 | 250 | 0.0 | 0.0 | 0.00 | 0.00 | 0.00 | 92 | 1047.8 |
| 20260902064526 | 24 | 250 | 0.0 | 0.0 | 0.00 | 0.00 | 0.00 | 91 | 1047.8 |
| 20260902064021 | 24 | 250 | 0.0 | 0.0 | 0.00 | 0.00 | 0.00 | 90 | 1047.7 |
| 20260902063521 | 24 | 250 | 0.0 | 0.0 | 0.00 | 0.00 | 0.00 | 90 | 1047.8 |
| 20260902063016 | 24 | 250 | 0.0 | 0.0 | 0.00 | 0.00 | 0.00 | 90 | 1047.9 |
| 20260902062514 | 24 | 250 | 0.0 | 0.0 | 0.00 | 0.00 | 0.00 | 91 | 1048.0 |
| 20260902062011 | 24 | 250 | 0.0 | 0.0 | 0.00 | 0.00 | 0.00 | 92 | 1048.0 |
| 20260902061510 | 24 | 250 | 0.0 | 0.0 | 0.00 | 0.00 | 0.00 | 92 | 1048.1 |
| 20260902061006 | 24 | 250 | 0.0 | 0.0 | 0.00 | 0.00 | 0.00 | 92 | 1048.1 |
| 20260902060503 | 24 | 250 | 0.0 | 0.0 | 0.00 | 0.00 | 0.00 | 91 | 1048.0 |
| 20260902055958 | 24 | 250 | 0.0 | 0.0 | 0.00 | 0.00 | 0.00 | 91 | 1048.0 |
| 20260902055454 | 25 | 250 | 0.0 | 0.0 | 0.00 | 0.00 | 0.00 | 90 | 1048.0 |
| 20260902054950 | 25 | 250 | 0.0 | 0.0 | 0.00 | 0.00 | 0.00 | 89 | 1048.1 |
| 20260902054449 | 25 | 250 | 0.0 | 0.0 | 0.00 | 0.00 | 0.00 | 90 | 1048.0 |
| 20260902053945 | 25 | 250 | 0.0 | 0.0 | 0.00 | 0.00 | 0.00 | 89 | 1047.9 |
| 20260902053440 | 25 | 250 | 0.0 | 0.0 | 0.00 | 0.00 | 0.00 | 89 | 1047.8 |
| 20260902052939 | 25 | 250 | 0.0 | 0.0 | 0.00 | 0.00 | 0.00 | 89 | 1047.8 |
| 20260902052434 | 25 | 250 | 0.0 | 0.0 | 0.00 | 0.00 | 0.00 | 90 | 1047.9 |
| 20260902051930 | 25 | 250 | 0.0 | 0.0 | 0.00 | 0.00 | 0.00 | 90 | 1048.0 |
| 20260902051425 | 25 | 250 | 0.0 | 0.0 | 0.00 | 0.00 | 0.00 | 90 | 1048.0 |
| 20260902050924 | 25 | 250 | 0.0 | 0.0 | 0.00 | 0.00 | 0.00 | 89 | 1048.0 |
| 20260902050423 | 25 | 250 | 0.0 | 0.0 | 0.00 | 0.00 | 0.00 | 89 | 1047.9 |
| 20260902045919 | 25 | 250 | 0.0 | 0.0 | 0.00 | 0.00 | 0.00 | 89 | 1047.9 |
| 20260902045414 | 25 | 250 | 0.0 | 0.0 | 0.00 | 0.00 | 0.00 | 89 | 1048.0 |
| 20260902044910 | 25 | 250 | 0.0 | 0.0 | 0.00 | 0.00 | 0.00 | 88 | 1048.0 |
| 20260902044405 | 25 | 250 | 0.0 | 0.0 | 0.00 | 0.00 | 0.00 | 88 | 1048.1 |
| 20260902043900 | 25 | 250 | 0.0 | 0.0 | 0.00 | 0.00 | 0.00 | 87 | 1047.7 |
| 20260902043356 | 25 | 250 | 0.0 | 0.0 | 0.00 | 0.00 | 0.00 | 87 | 1047.9 |
| 20260902042851 | 25 | 250 | 0.0 | 0.0 | 0.00 | 0.00 | 0.00 | 87 | 1047.9 |
| 20260902042350 | 26 | 250 | 0.0 | 0.0 | 0.00 | 0.00 | 0.00 | 86 | 1048.1 |
| 20260902041846 | 26 | 250 | 0.0 | 0.0 | 0.00 | 0.00 | 0.00 | 86 | 1048.1 |
| 20260902041345 | 26 | 250 | 0.0 | 0.0 | 0.00 | 0.00 | 0.00 | 86 | 1048.0 |
| 20260902040844 | 26 | 250 | 0.0 | 0.0 | 0.00 | 0.00 | 0.00 | 85 | 1047.9 |
| 20260902040340 | 26 | 250 | 0.0 | 0.0 | 0.00 | 0.00 | 0.00 | 85 | 1048.1 |
| 20260902035838 | 26 | 250 | 0.0 | 0.0 | 0.00 | 0.00 | 0.00 | 85 | 1047.9 |
| 20260902035334 | 26 | 250 | 0.0 | 0.0 | 0.00 | 0.00 | 0.00 | 84 | 1047.9 |
| 20260902034833 | 26 | 250 | 0.0 | 0.0 | 0.00 | 0.00 | 0.00 | 83 | 1047.9 |
| 20260902034328 | 26 | 250 | 0.0 | 0.0 | 0.00 | 0.00 | 0.00 | 83 | 1048.0 |
| 20260902033826 | 26 | 250 | 0.0 | 0.0 | 0.00 | 0.00 | 0.00 | 83 | 1048.0 |
| 20260902033322 | 26 | 250 | 0.0 | 0.0 | 0.00 | 0.00 | 0.00 | 82 | 1047.9 |
| 20260902032821 | 26 | 250 | 0.0 | 0.0 | 0.00 | 0.00 | 0.00 | 82 | 1048.0 |
| 20260902032315 | 26 | 250 | 0.0 | 0.0 | 0.00 | 0.00 | 0.00 | 82 | 1048.1 |
| 20260902031815 | 26 | 250 | 0.0 | 0.0 | 0.00 | 0.00 | 0.00 | 82 | 1048.0 |
| 20260902031311 | 26 | 253 | 0.0 | 0.0 | 0.00 | 0.00 | 0.00 | 81 | 1048.0 |
| 20260902030807 | 26 | 253 | 0.0 | 0.0 | 0.00 | 0.00 | 0.00 | 81 | 1048.2 |
| 20260902030301 | 26 | 253 | 0.0 | 0.0 | 0.00 | 0.00 | 0.00 | 81 | 1047.9 |
| 20260902025801 | 26 | 253 | 0.0 | 0.0 | 0.00 | 0.00 | 0.00 | 80 | 1048.0 |
| 20260902025256 | 26 | 253 | 0.0 | 0.0 | 0.00 | 0.00 | 0.00 | 79 | 1047.9 |
| 20260902024750 | 26 | 253 | 0.0 | 0.0 | 0.00 | 0.00 | 0.00 | 79 | 1048.0 |
| 20260902024246 | 26 | 253 | 0.0 | 0.0 | 0.00 | 0.00 | 0.00 | 79 | 1048.1 |
| 20260902023742 | 26 | 253 | 0.0 | 0.0 | 0.00 | 0.00 | 0.00 | 78 | 1048.0 |
| 20260902023237 | 27 | 253 | 0.0 | 0.0 | 0.00 | 0.00 | 0.00 | 76 | 1048.1 |
| 20260902022736 | 27 | 253 | 0.0 | 0.0 | 0.00 | 0.00 | 0.00 | 75 | 1048.1 |
| 20260902022232 | 27 | 253 | 0.0 | 0.0 | 0.00 | 0.00 | 0.00 | 75 | 1048.1 |
| 20260902021727 | 27 | 253 | 0.0 | 0.0 | 0.00 | 0.00 | 0.00 | 74 | 1048.0 |
| 20260902021227 | 27 | 253 | 0.0 | 0.0 | 0.00 | 0.00 | 0.00 | 74 | 1047.9 |
| 20260902020723 | 27 | 253 | 0.0 | 0.0 | 0.00 | 0.00 | 0.00 | 73 | 1047.9 |
| 20260902020219 | 27 | 253 | 0.0 | 0.0 | 0.00 | 0.00 | 0.00 | 73 | 1047.7 |
| 20260902015714 | 27 | 253 | 0.0 | 0.0 | 0.00 | 0.00 | 0.00 | 73 | 1047.8 |
| 20260902015211 | 27 | 253 | 0.0 | 0.0 | 0.00 | 0.00 | 0.00 | 74 | 1047.7 |
| 20260902014706 | 27 | 253 | 0.0 | 0.0 | 0.00 | 0.00 | 0.00 | 73 | 1047.7 |
| 20260902014202 | 27 | 253 | 0.0 | 0.0 | 0.00 | 0.00 | 0.00 | 73 | 1047.8 |
| 20260902013701 | 28 | 253 | 0.0 | 0.0 | 0.00 | 0.00 | 0.00 | 71 | 1047.7 |
| 20260902013156 | 28 | 253 | 0.0 | 0.0 | 0.00 | 0.00 | 0.00 | 71 | 1047.6 |
| 20260902012652 | 28 | 253 | 0.0 | 0.0 | 0.00 | 0.00 | 0.00 | 71 | 1047.6 |
| 20260902012148 | 28 | 253 | 0.0 | 0.0 | 0.00 | 0.00 | 0.00 | 71 | 1047.4 |
| 20260902011643 | 28 | 253 | 0.0 | 0.0 | 0.00 | 0.00 | 0.00 | 69 | 1047.4 |
| 20260902011143 | 28 | 253 | 0.0 | 0.0 | 0.00 | 0.00 | 0.00 | 69 | 1047.4 |
| 20260902010642 | 29 | 253 | 0.0 | 0.0 | 0.00 | 0.00 | 0.00 | 68 | 1047.3 |
| 20260902010138 | 29 | 253 | 0.0 | 0.0 | 0.00 | 0.00 | 0.00 | 67 | 1047.2 |
| 20260902005636 | 30 | 253 | 0.0 | 0.0 | 0.00 | 0.00 | 0.00 | 66 | 1047.4 |
| 20260902005132 | 30 | 253 | 0.0 | 0.0 | 0.00 | 0.00 | 0.00 | 65 | 1047.2 |
| 20260902004631 | 30 | 253 | 0.0 | 0.0 | 0.00 | 0.00 | 0.00 | 65 | 1047.0 |
| 20260902004126 | 30 | 253 | 0.0 | 0.0 | 0.00 | 0.00 | 0.00 | 65 | 1047.3 |
| 20260902003622 | 30 | 254 | 0.0 | 0.0 | 0.00 | 0.00 | 0.00 | 64 | 1047.0 |
| 20260902003117 | 30 | 254 | 0.0 | 0.0 | 0.00 | 0.00 | 0.00 | 63 | 1047.2 |
| 20260902002613 | 30 | 254 | 0.0 | 0.0 | 0.00 | 0.00 | 0.00 | 62 | 1047.2 |
| 20260902002108 | 31 | 269 | 0.0 | 1.6 | 0.00 | 0.00 | 0.00 | 62 | 1047.2 |
| 20260902001602 | 31 | 254 | 0.0 | 1.6 | 0.00 | 0.00 | 0.00 | 61 | 1047.3 |
| 20260902001057 | 31 | 262 | 1.6 | 1.6 | 0.00 | 0.00 | 0.00 | 62 | 1047.3 |
| 20260902000552 | 31 | 257 | 0.0 | 0.0 | 0.00 | 0.00 | 0.00 | 62 | 1047.3 |
| 20260902000048 | 31 | 256 | 0.0 | 0.0 | 0.00 | 0.00 | 0.00 | 61 | 1047.4 |
| 20260901235547 | 31 | 292 | 0.0 | 0.0 | 0.00 | 0.00 | 0.00 | 61 | 1047.2 |
| 20260901235043 | 32 | 258 | 0.0 | 1.6 | 0.00 | 0.00 | 0.00 | 61 | 1047.4 |
| 20260901234542 | 32 | 236 | 1.6 | 1.6 | 0.00 | 0.00 | 0.00 | 59 | 1047.3 |
| 20260901234037 | 32 | 254 | 0.0 | 0.0 | 0.00 | 0.00 | 0.00 | 57 | 1047.3 |
| 20260901233537 | 32 | 254 | 0.0 | 1.6 | 0.00 | 0.00 | 0.00 | 56 | 1047.3 |
| 20260901233033 | 32 | 267 | 0.0 | 0.0 | 0.00 | 0.00 | 0.00 | 55 | 1047.3 |
| 20260901232528 | 33 | 258 | 0.0 | 0.0 | 0.00 | 0.00 | 0.00 | 54 | 1047.4 |
| 20260901232023 | 33 | 261 | 0.0 | 0.0 | 0.00 | 0.00 | 0.00 | 53 | 1047.3 |
| 20260901231520 | 33 | 280 | 0.0 | 0.0 | 0.00 | 0.00 | 0.00 | 53 | 1047.3 |
| 20260901231016 | 33 | 264 | 1.6 | 1.6 | 0.00 | 0.00 | 0.00 | 52 | 1047.3 |
| 20260901230515 | 33 | 262 | 1.6 | 3.2 | 0.00 | 0.00 | 0.00 | 52 | 1047.2 |
| 20260901230011 | 33 | 241 | 1.6 | 1.6 | 0.00 | 0.00 | 0.00 | 52 | 1047.2 |
| 20260901225506 | 33 | 208 | 3.2 | 4.8 | 0.00 | 0.00 | 0.00 | 52 | 1047.2 |
| 20260901225000 | 33 | 268 | 1.6 | 3.2 | 0.00 | 0.00 | 0.00 | 52 | 1047.0 |
| 20260901224456 | 33 | 257 | 1.6 | 1.6 | 0.00 | 0.00 | 0.00 | 51 | 1047.4 |
| 20260901223952 | 34 | 272 | 0.0 | 0.0 | 0.00 | 0.00 | 0.00 | 51 | 1047.0 |
| 20260901223448 | 34 | 261 | 1.6 | 1.6 | 0.00 | 0.00 | 0.00 | 51 | 1047.2 |
| 20260901222943 | 35 | 272 | 1.6 | 1.6 | 0.00 | 0.00 | 0.00 | 51 | 1047.2 |
| 20260901222439 | 35 | 254 | 1.6 | 1.6 | 0.00 | 0.00 | 0.00 | 49 | 1046.9 |
| 20260901221935 | 35 | 275 | 0.0 | 1.6 | 0.00 | 0.00 | 0.00 | 49 | 1046.9 |
| 20260901221431 | 35 | 263 | 1.6 | 4.8 | 0.00 | 0.00 | 0.00 | 48 | 1047.2 |
| 20260901220930 | 35 | 265 | 1.6 | 1.6 | 0.00 | 0.00 | 0.00 | 48 | 1047.3 |
| 20260901220429 | 35 | 257 | 3.2 | 4.8 | 0.00 | 0.00 | 0.00 | 48 | 1047.2 |
| 20260901215928 | 35 | 263 | 3.2 | 4.8 | 0.00 | 0.00 | 0.00 | 47 | 1046.8 |
| 20260901215427 | 35 | 281 | 0.0 | 0.0 | 0.00 | 0.00 | 0.00 | 48 | 1046.9 |
| 20260901214926 | 35 | 262 | 1.6 | 4.8 | 0.00 | 0.00 | 0.00 | 47 | 1046.9 |
| 20260901214425 | 35 | 297 | 1.6 | 1.6 | 0.00 | 0.00 | 0.00 | 48 | 1046.8 |
| 20260901213920 | 35 | 275 | 1.6 | 1.6 | 0.00 | 0.00 | 0.00 | 47 | 1046.9 |
| 20260901213415 | 35 | 298 | 1.6 | 1.6 | 0.00 | 0.00 | 0.00 | 49 | 1047.0 |
| 20260901212914 | 35 | 283 | 0.0 | 0.0 | 0.00 | 0.00 | 0.00 | 48 | 1047.3 |
| 20260901212409 | 36 | 253 | 3.2 | 3.2 | 0.00 | 0.00 | 0.00 | 47 | 1047.3 |
| 20260901211906 | 36 | 289 | 1.6 | 1.6 | 0.00 | 0.00 | 0.00 | 47 | 1047.4 |
| 20260901211401 | 36 | 244 | 3.2 | 4.8 | 0.00 | 0.00 | 0.00 | 45 | 1047.0 |
| 20260901210857 | 36 | 278 | 3.2 | 3.2 | 0.00 | 0.00 | 0.00 | 45 | 1047.2 |
| 20260901210352 | 36 | 286 | 3.2 | 3.2 | 0.00 | 0.00 | 0.00 | 46 | 1047.3 |
| 20260901205848 | 36 | 274 | 1.6 | 1.6 | 0.00 | 0.00 | 0.00 | 45 | 1047.3 |
| 20260901205343 | 36 | 286 | 1.6 | 1.6 | 0.00 | 0.00 | 0.00 | 45 | 1047.2 |
| 20260901204838 | 36 | 273 | 1.6 | 3.2 | 0.00 | 0.00 | 0.00 | 48 | 1047.3 |
| 20260901204335 | 36 | 275 | 1.6 | 1.6 | 0.00 | 0.00 | 0.00 | 46 | 1047.3 |
| 20260901203835 | 36 | 264 | 4.8 | 11.3 | 0.00 | 0.00 | 0.00 | 45 | 1047.2 |
| 20260901203334 | 36 | 296 | 1.6 | 1.6 | 0.00 | 0.00 | 0.00 | 44 | 1047.0 |
| 20260901202829 | 36 | 285 | 1.6 | 3.2 | 0.00 | 0.00 | 0.00 | 45 | 1047.2 |
| 20260901202324 | 36 | 265 | 3.2 | 6.4 | 0.00 | 0.00 | 0.00 | 45 | 1047.2 |
| 20260901201821 | 36 | 307 | 0.0 | 1.6 | 0.00 | 0.00 | 0.00 | 44 | 1047.2 |
| 20260901201320 | 36 | 288 | 1.6 | 1.6 | 0.00 | 0.00 | 0.00 | 44 | 1047.5 |
| 20260901200814 | 36 | 290 | 1.6 | 1.6 | 0.00 | 0.00 | 0.00 | 45 | 1047.5 |
| 20260901200309 | 36 | 275 | 1.6 | 1.6 | 0.00 | 0.00 | 0.00 | 44 | 1047.4 |
| 20260901195808 | 36 | 253 | 6.4 | 9.7 | 0.00 | 0.00 | 0.00 | 43 | 1047.2 |
| 20260901195301 | 37 | 286 | 3.2 | 4.8 | 0.00 | 0.00 | 0.00 | 43 | 1047.2 |
| 20260901194756 | 36 | 282 | 3.2 | 6.4 | 0.00 | 0.00 | 0.00 | 45 | 1047.3 |
| 20260901194251 | 36 | 248 | 4.8 | 4.8 | 0.00 | 0.00 | 0.00 | 44 | 1047.2 |
| 20260901193748 | 36 | 236 | 1.6 | 1.6 | 0.00 | 0.00 | 0.00 | 47 | 1047.3 |
| 20260901193246 | 36 | 311 | 3.2 | 4.8 | 0.00 | 0.00 | 0.00 | 45 | 1047.4 |
| 20260901192741 | 36 | 259 | 1.6 | 3.2 | 0.00 | 0.00 | 0.00 | 44 | 1047.5 |
| 20260901192237 | 36 | 250 | 3.2 | 4.8 | 0.00 | 0.00 | 0.00 | 44 | 1047.5 |
| 20260901191732 | 36 | 313 | 3.2 | 4.8 | 0.00 | 0.00 | 0.00 | 45 | 1047.6 |
| 20260901191228 | 36 | 265 | 3.2 | 3.2 | 0.00 | 0.00 | 0.00 | 43 | 1047.8 |
| 20260901190724 | 36 | 167 | 9.7 | 14.5 | 0.00 | 0.00 | 0.00 | 44 | 1047.8 |
| 20260901190223 | 36 | 283 | 3.2 | 4.8 | 0.00 | 0.00 | 0.00 | 45 | 1047.8 |
| 20260901185722 | 36 | 248 | 6.4 | 6.4 | 0.00 | 0.00 | 0.00 | 46 | 1047.7 |
| 20260901185221 | 36 | 260 | 1.6 | 1.6 | 0.00 | 0.00 | 0.00 | 45 | 1047.7 |
| 20260901184717 | 36 | 284 | 1.6 | 3.2 | 0.00 | 0.00 | 0.00 | 43 | 1047.6 |
| 20260901184212 | 36 | 268 | 1.6 | 1.6 | 0.00 | 0.00 | 0.00 | 46 | 1047.8 |
| 20260901183708 | 35 | 275 | 1.6 | 3.2 | 0.00 | 0.00 | 0.00 | 47 | 1047.8 |
| 20260901183207 | 35 | 292 | 1.6 | 1.6 | 0.00 | 0.00 | 0.00 | 47 | 1048.2 |
| 20260901182703 | 36 | 263 | 3.2 | 3.2 | 0.00 | 0.00 | 0.00 | 46 | 1048.0 |
| 20260901182202 | 35 | 262 | 4.8 | 4.8 | 0.00 | 0.00 | 0.00 | 47 | 1047.9 |
| 20260901181658 | 35 | 288 | 3.2 | 4.8 | 0.00 | 0.00 | 0.00 | 47 | 1048.0 |
| 20260901181158 | 35 | 299 | 3.2 | 4.8 | 0.00 | 0.00 | 0.00 | 46 | 1048.0 |
| 20260901180658 | 35 | 272 | 6.4 | 6.4 | 0.00 | 0.00 | 0.00 | 46 | 1048.2 |
| 20260901180157 | 35 | 272 | 1.6 | 3.2 | 0.00 | 0.00 | 0.00 | 49 | 1048.2 |
| 20260901175656 | 35 | 273 | 1.6 | 1.6 | 0.00 | 0.00 | 0.00 | 48 | 1047.9 |